Bob Baker Memorial Airport
PAIK : rendu visible

Aérodrome :











RETROUVEZ-NOUS SUR...

 
LOGIN :

S'inscrire | Disclaimer

   EN    FR    IT 

 









Légende :    VFR   VFR Marginal   IFR   IFR Intensif   IFR Très Intensif
Visi : 
Plafond : 
>= 8 km
>= 3000ft
5 à 8 km
1000 à 3000 ft
1500m à 5 km
500 à 1000 ft
800 à 1500m
200 à 500 ft
< 800m
< 200 ft
Symboles :   Orages  Brouillard  Fortes neiges  Fortes précipitations  Vent > 20 kt






- Altitude de l'aérodrome : 166 ft
- Code IATA : IAN


PAIK - Bob Baker Memorial

DERNIER METAR :
  • 271156Z AUTO 00000KT 10SM CLR M29/M32 A3004 RMK AO2 SLP180 T12941317 11289 21311 58003 FZRANO

METARs EXPIRÉS :
  • 271056Z AUTO 00000KT 10SM CLR M29/M32 A3005 RMK AO2 SLP181 T12941322 FZRANO
  • 270956Z AUTO 00000KT 10SM CLR M30/M33 A3005 RMK AO2 SLP182 T13001328 FZRANO

TAF N/A



MET'MAP, la Météo Aéronautique d'un coup d'oeil ! - Copyright ORBIFLY Décembre 2007 - Disclaimer

ORBIFLY MET'MAP TEAM :

Programmation & Développement : Alexandra Zaïnal
Sur une idée originale de : Baudouin d'Aumeries
Assistance à la programmation : Marc-Olivier Méhu
Soutien technique & logistique : Manuel Goepfert

Contact : metmap@orbifly.com




SOURCES & CREDITS :

   NOAA       Earth
Advisory